sensor_id;sensor_type;location;lat;lon;timestamp;temperature;humidity
9375;DHT22;4727;51.202;6.344;2023-07-24T00:02:24;18.50;99.90
9375;DHT22;4727;51.202;6.344;2023-07-24T00:04:50;18.40;99.90
9375;DHT22;4727;51.202;6.344;2023-07-24T00:07:15;18.30;99.90
9375;DHT22;4727;51.202;6.344;2023-07-24T00:09:41;18.50;99.90
9375;DHT22;4727;51.202;6.344;2023-07-24T00:12:07;18.20;99.90
9375;DHT22;4727;51.202;6.344;2023-07-24T00:14:32;18.20;99.90
9375;DHT22;4727;51.202;6.344;2023-07-24T00:16:58;17.90;99.90
9375;DHT22;4727;51.202;6.344;2023-07-24T00:19:23;18.10;99.90
9375;DHT22;4727;51.202;6.344;2023-07-24T00:21:49;18.10;99.90
9375;DHT22;4727;51.202;6.344;2023-07-24T00:24:14;18.10;99.90
9375;DHT22;4727;51.202;6.344;2023-07-24T00:26:40;18.10;99.90
9375;DHT22;4727;51.202;6.344;2023-07-24T00:29:05;18.10;99.90
9375;DHT22;4727;51.202;6.344;2023-07-24T00:31:31;18.20;99.90
9375;DHT22;4727;51.202;6.344;2023-07-24T00:33:56;18.10;99.90
9375;DHT22;4727;51.202;6.344;2023-07-24T00:36:25;18.00;99.90
9375;DHT22;4727;51.202;6.344;2023-07-24T00:38:51;17.90;99.90
9375;DHT22;4727;51.202;6.344;2023-07-24T00:41:17;18.00;99.90
9375;DHT22;4727;51.202;6.344;2023-07-24T00:43:42;18.00;99.90
9375;DHT22;4727;51.202;6.344;2023-07-24T00:46:09;18.10;99.90
9375;DHT22;4727;51.202;6.344;2023-07-24T00:48:35;18.00;99.90
9375;DHT22;4727;51.202;6.344;2023-07-24T00:51:01;18.10;99.90
9375;DHT22;4727;51.202;6.344;2023-07-24T00:53:27;18.00;99.90
9375;DHT22;4727;51.202;6.344;2023-07-24T00:55:53;18.00;99.90
9375;DHT22;4727;51.202;6.344;2023-07-24T00:58:19;18.00;99.90
9375;DHT22;4727;51.202;6.344;2023-07-24T01:00:45;18.00;99.90
9375;DHT22;4727;51.202;6.344;2023-07-24T01:03:11;18.10;99.90
9375;DHT22;4727;51.202;6.344;2023-07-24T01:05:37;18.00;99.90
9375;DHT22;4727;51.202;6.344;2023-07-24T01:08:04;18.10;99.90
9375;DHT22;4727;51.202;6.344;2023-07-24T01:10:30;18.00;99.90
9375;DHT22;4727;51.202;6.344;2023-07-24T01:13:15;18.00;99.90
9375;DHT22;4727;51.202;6.344;2023-07-24T01:15:49;18.00;99.90
9375;DHT22;4727;51.202;6.344;2023-07-24T01:18:17;18.00;99.90
9375;DHT22;4727;51.202;6.344;2023-07-24T01:20:52;18.00;99.90
9375;DHT22;4727;51.202;6.344;2023-07-24T01:23:40;17.90;99.90
9375;DHT22;4727;51.202;6.344;2023-07-24T01:26:09;17.90;99.90
9375;DHT22;4727;51.202;6.344;2023-07-24T01:28:36;17.90;99.90
9375;DHT22;4727;51.202;6.344;2023-07-24T01:31:01;17.90;99.90
9375;DHT22;4727;51.202;6.344;2023-07-24T01:33:27;17.90;99.90
9375;DHT22;4727;51.202;6.344;2023-07-24T01:35:58;17.90;99.90
9375;DHT22;4727;51.202;6.344;2023-07-24T01:38:25;17.90;99.90
9375;DHT22;4727;51.202;6.344;2023-07-24T01:40:53;17.90;99.90
9375;DHT22;4727;51.202;6.344;2023-07-24T01:43:18;17.90;99.90
9375;DHT22;4727;51.202;6.344;2023-07-24T01:45:44;17.90;99.90
9375;DHT22;4727;51.202;6.344;2023-07-24T01:48:10;17.90;99.90
9375;DHT22;4727;51.202;6.344;2023-07-24T01:50:35;17.90;99.90
9375;DHT22;4727;51.202;6.344;2023-07-24T01:53:01;17.90;99.90
9375;DHT22;4727;51.202;6.344;2023-07-24T01:55:26;17.90;99.90
9375;DHT22;4727;51.202;6.344;2023-07-24T01:57:52;17.90;99.90
9375;DHT22;4727;51.202;6.344;2023-07-24T02:00:18;17.90;99.90
9375;DHT22;4727;51.202;6.344;2023-07-24T02:02:43;17.90;99.90
9375;DHT22;4727;51.202;6.344;2023-07-24T02:05:09;17.90;99.90
9375;DHT22;4727;51.202;6.344;2023-07-24T02:07:35;17.90;99.90
9375;DHT22;4727;51.202;6.344;2023-07-24T02:10:00;17.80;99.90
9375;DHT22;4727;51.202;6.344;2023-07-24T02:12:26;17.90;99.90
9375;DHT22;4727;51.202;6.344;2023-07-24T02:14:51;17.90;99.90
9375;DHT22;4727;51.202;6.344;2023-07-24T02:17:18;18.00;99.90
9375;DHT22;4727;51.202;6.344;2023-07-24T02:19:44;17.90;99.90
9375;DHT22;4727;51.202;6.344;2023-07-24T02:22:10;17.90;99.90
9375;DHT22;4727;51.202;6.344;2023-07-24T02:24:36;17.90;99.90
9375;DHT22;4727;51.202;6.344;2023-07-24T02:27:02;17.90;99.90
9375;DHT22;4727;51.202;6.344;2023-07-24T02:29:27;17.90;99.90
9375;DHT22;4727;51.202;6.344;2023-07-24T02:31:54;17.90;99.90
9375;DHT22;4727;51.202;6.344;2023-07-24T02:34:19;18.00;99.90
9375;DHT22;4727;51.202;6.344;2023-07-24T02:36:50;17.90;99.90
9375;DHT22;4727;51.202;6.344;2023-07-24T02:39:15;17.90;99.90
9375;DHT22;4727;51.202;6.344;2023-07-24T02:41:41;18.00;99.90
9375;DHT22;4727;51.202;6.344;2023-07-24T02:44:06;17.90;99.90
9375;DHT22;4727;51.202;6.344;2023-07-24T02:46:32;17.90;99.90
9375;DHT22;4727;51.202;6.344;2023-07-24T02:48:58;17.90;99.90
9375;DHT22;4727;51.202;6.344;2023-07-24T02:51:23;17.90;99.90
9375;DHT22;4727;51.202;6.344;2023-07-24T02:53:49;17.80;99.90
9375;DHT22;4727;51.202;6.344;2023-07-24T02:56:14;17.90;99.90
9375;DHT22;4727;51.202;6.344;2023-07-24T02:58:40;17.90;99.90
9375;DHT22;4727;51.202;6.344;2023-07-24T03:01:07;17.90;99.90
9375;DHT22;4727;51.202;6.344;2023-07-24T03:03:33;17.90;99.90
9375;DHT22;4727;51.202;6.344;2023-07-24T03:05:59;17.90;99.90
9375;DHT22;4727;51.202;6.344;2023-07-24T03:08:25;18.00;99.90
9375;DHT22;4727;51.202;6.344;2023-07-24T03:10:51;17.80;99.90
9375;DHT22;4727;51.202;6.344;2023-07-24T03:13:16;18.00;99.90
9375;DHT22;4727;51.202;6.344;2023-07-24T03:15:42;17.90;99.90
9375;DHT22;4727;51.202;6.344;2023-07-24T03:18:07;18.10;99.90
9375;DHT22;4727;51.202;6.344;2023-07-24T03:20:33;17.90;99.90
9375;DHT22;4727;51.202;6.344;2023-07-24T03:22:58;17.90;99.90
9375;DHT22;4727;51.202;6.344;2023-07-24T03:25:24;17.90;99.90
9375;DHT22;4727;51.202;6.344;2023-07-24T03:27:49;17.90;99.90
9375;DHT22;4727;51.202;6.344;2023-07-24T03:30:15;18.00;99.90
9375;DHT22;4727;51.202;6.344;2023-07-24T03:32:41;17.90;99.90
9375;DHT22;4727;51.202;6.344;2023-07-24T03:35:06;17.90;99.90
9375;DHT22;4727;51.202;6.344;2023-07-24T03:37:34;17.90;99.90
9375;DHT22;4727;51.202;6.344;2023-07-24T03:40:00;17.90;99.90
9375;DHT22;4727;51.202;6.344;2023-07-24T03:42:27;18.00;99.90
9375;DHT22;4727;51.202;6.344;2023-07-24T03:44:53;17.80;99.90
9375;DHT22;4727;51.202;6.344;2023-07-24T03:47:19;17.90;99.90
9375;DHT22;4727;51.202;6.344;2023-07-24T03:49:45;17.90;99.90
9375;DHT22;4727;51.202;6.344;2023-07-24T03:52:10;17.90;99.90
9375;DHT22;4727;51.202;6.344;2023-07-24T03:54:36;18.00;99.90
9375;DHT22;4727;51.202;6.344;2023-07-24T03:57:02;17.90;99.90
9375;DHT22;4727;51.202;6.344;2023-07-24T03:59:27;17.80;99.90
9375;DHT22;4727;51.202;6.344;2023-07-24T04:01:53;17.80;99.90
9375;DHT22;4727;51.202;6.344;2023-07-24T04:04:18;17.80;99.90
9375;DHT22;4727;51.202;6.344;2023-07-24T04:06:45;17.90;99.90
9375;DHT22;4727;51.202;6.344;2023-07-24T04:09:11;17.80;99.90
9375;DHT22;4727;51.202;6.344;2023-07-24T04:11:43;17.70;99.90
9375;DHT22;4727;51.202;6.344;2023-07-24T04:14:08;17.70;99.90
9375;DHT22;4727;51.202;6.344;2023-07-24T04:16:34;17.70;99.90
9375;DHT22;4727;51.202;6.344;2023-07-24T04:19:00;17.70;99.90
9375;DHT22;4727;51.202;6.344;2023-07-24T04:21:25;17.80;99.90
9375;DHT22;4727;51.202;6.344;2023-07-24T04:23:51;17.80;99.90
9375;DHT22;4727;51.202;6.344;2023-07-24T04:26:16;17.70;99.90
9375;DHT22;4727;51.202;6.344;2023-07-24T04:28:42;17.80;99.90
9375;DHT22;4727;51.202;6.344;2023-07-24T04:31:07;17.80;99.90
9375;DHT22;4727;51.202;6.344;2023-07-24T04:33:33;17.70;99.90
9375;DHT22;4727;51.202;6.344;2023-07-24T04:35:59;17.70;99.90
9375;DHT22;4727;51.202;6.344;2023-07-24T04:38:24;17.70;99.90
9375;DHT22;4727;51.202;6.344;2023-07-24T04:40:50;17.70;99.90
9375;DHT22;4727;51.202;6.344;2023-07-24T04:43:15;17.70;99.90
9375;DHT22;4727;51.202;6.344;2023-07-24T04:45:41;17.70;99.90
9375;DHT22;4727;51.202;6.344;2023-07-24T04:48:06;18.00;99.90
9375;DHT22;4727;51.202;6.344;2023-07-24T04:50:32;17.70;99.90
9375;DHT22;4727;51.202;6.344;2023-07-24T04:52:58;17.70;99.90
9375;DHT22;4727;51.202;6.344;2023-07-24T04:55:24;17.70;99.90
9375;DHT22;4727;51.202;6.344;2023-07-24T04:57:49;17.70;99.90
9375;DHT22;4727;51.202;6.344;2023-07-24T05:00:15;17.90;99.90
9375;DHT22;4727;51.202;6.344;2023-07-24T05:02:41;17.70;99.90
9375;DHT22;4727;51.202;6.344;2023-07-24T05:05:07;17.70;99.90
9375;DHT22;4727;51.202;6.344;2023-07-24T05:07:32;17.70;99.90
9375;DHT22;4727;51.202;6.344;2023-07-24T05:09:59;17.70;99.90
9375;DHT22;4727;51.202;6.344;2023-07-24T05:12:24;17.60;99.90
9375;DHT22;4727;51.202;6.344;2023-07-24T05:14:50;17.70;99.90
9375;DHT22;4727;51.202;6.344;2023-07-24T05:17:16;17.70;99.90
9375;DHT22;4727;51.202;6.344;2023-07-24T05:19:41;17.60;99.90
9375;DHT22;4727;51.202;6.344;2023-07-24T05:22:07;17.70;99.90
9375;DHT22;4727;51.202;6.344;2023-07-24T05:24:33;17.70;99.90
9375;DHT22;4727;51.202;6.344;2023-07-24T05:26:59;18.00;99.90
9375;DHT22;4727;51.202;6.344;2023-07-24T05:29:24;17.90;99.90
9375;DHT22;4727;51.202;6.344;2023-07-24T05:31:50;17.80;99.90
9375;DHT22;4727;51.202;6.344;2023-07-24T05:34:15;17.80;99.90
9375;DHT22;4727;51.202;6.344;2023-07-24T05:36:41;17.80;99.90
9375;DHT22;4727;51.202;6.344;2023-07-24T05:39:07;17.80;99.90
9375;DHT22;4727;51.202;6.344;2023-07-24T05:41:32;17.90;99.90
9375;DHT22;4727;51.202;6.344;2023-07-24T05:43:58;17.90;99.90
9375;DHT22;4727;51.202;6.344;2023-07-24T05:46:23;17.80;99.90
9375;DHT22;4727;51.202;6.344;2023-07-24T05:48:49;17.90;99.90
9375;DHT22;4727;51.202;6.344;2023-07-24T05:51:14;17.80;99.90
9375;DHT22;4727;51.202;6.344;2023-07-24T05:53:40;17.90;99.90
9375;DHT22;4727;51.202;6.344;2023-07-24T05:56:05;18.20;99.90
9375;DHT22;4727;51.202;6.344;2023-07-24T05:58:31;18.00;99.90
9375;DHT22;4727;51.202;6.344;2023-07-24T06:00:57;18.10;99.90
9375;DHT22;4727;51.202;6.344;2023-07-24T06:03:23;18.20;99.90
9375;DHT22;4727;51.202;6.344;2023-07-24T06:05:53;18.20;99.90
9375;DHT22;4727;51.202;6.344;2023-07-24T06:08:20;18.20;99.90
9375;DHT22;4727;51.202;6.344;2023-07-24T06:10:49;18.30;99.90
9375;DHT22;4727;51.202;6.344;2023-07-24T06:13:16;18.40;99.90
9375;DHT22;4727;51.202;6.344;2023-07-24T06:15:41;18.30;99.90
9375;DHT22;4727;51.202;6.344;2023-07-24T06:18:07;18.30;99.90
9375;DHT22;4727;51.202;6.344;2023-07-24T06:20:33;18.30;99.90
9375;DHT22;4727;51.202;6.344;2023-07-24T06:22:58;18.30;99.90
9375;DHT22;4727;51.202;6.344;2023-07-24T06:25:24;18.30;99.90
9375;DHT22;4727;51.202;6.344;2023-07-24T06:27:49;18.30;99.90
9375;DHT22;4727;51.202;6.344;2023-07-24T06:30:15;18.40;99.90
9375;DHT22;4727;51.202;6.344;2023-07-24T06:32:40;18.30;99.90
9375;DHT22;4727;51.202;6.344;2023-07-24T06:35:06;18.30;99.90
9375;DHT22;4727;51.202;6.344;2023-07-24T06:37:32;18.30;99.90
9375;DHT22;4727;51.202;6.344;2023-07-24T06:39:57;18.30;99.90
9375;DHT22;4727;51.202;6.344;2023-07-24T06:42:23;18.40;99.90
9375;DHT22;4727;51.202;6.344;2023-07-24T06:44:49;18.50;99.90
9375;DHT22;4727;51.202;6.344;2023-07-24T06:47:14;18.50;99.90
9375;DHT22;4727;51.202;6.344;2023-07-24T06:49:40;18.50;99.90
9375;DHT22;4727;51.202;6.344;2023-07-24T06:52:05;18.70;99.90
9375;DHT22;4727;51.202;6.344;2023-07-24T06:54:31;18.50;99.90
9375;DHT22;4727;51.202;6.344;2023-07-24T06:56:57;18.50;99.90
9375;DHT22;4727;51.202;6.344;2023-07-24T06:59:23;18.40;99.90
9375;DHT22;4727;51.202;6.344;2023-07-24T07:01:49;18.40;99.90
9375;DHT22;4727;51.202;6.344;2023-07-24T07:04:14;18.30;99.90
9375;DHT22;4727;51.202;6.344;2023-07-24T07:06:40;18.50;99.90
9375;DHT22;4727;51.202;6.344;2023-07-24T07:09:05;18.40;99.90
9375;DHT22;4727;51.202;6.344;2023-07-24T07:11:32;18.40;99.90
9375;DHT22;4727;51.202;6.344;2023-07-24T07:13:57;18.40;99.90
9375;DHT22;4727;51.202;6.344;2023-07-24T07:16:23;18.40;99.90
9375;DHT22;4727;51.202;6.344;2023-07-24T07:18:48;18.40;99.90
9375;DHT22;4727;51.202;6.344;2023-07-24T07:21:14;18.30;99.90
9375;DHT22;4727;51.202;6.344;2023-07-24T07:23:39;18.20;99.90
9375;DHT22;4727;51.202;6.344;2023-07-24T07:26:05;18.20;99.90
9375;DHT22;4727;51.202;6.344;2023-07-24T07:28:31;18.20;99.90
9375;DHT22;4727;51.202;6.344;2023-07-24T07:30:56;18.20;99.90
9375;DHT22;4727;51.202;6.344;2023-07-24T07:33:22;18.20;99.90
9375;DHT22;4727;51.202;6.344;2023-07-24T07:35:49;18.20;99.90
9375;DHT22;4727;51.202;6.344;2023-07-24T07:38:15;18.30;99.90
9375;DHT22;4727;51.202;6.344;2023-07-24T07:40:41;18.20;99.90
9375;DHT22;4727;51.202;6.344;2023-07-24T07:43:06;18.50;99.90
9375;DHT22;4727;51.202;6.344;2023-07-24T07:45:32;18.20;99.90
9375;DHT22;4727;51.202;6.344;2023-07-24T07:47:57;18.50;99.90
9375;DHT22;4727;51.202;6.344;2023-07-24T07:50:23;18.10;99.90
9375;DHT22;4727;51.202;6.344;2023-07-24T07:52:52;18.10;99.90
9375;DHT22;4727;51.202;6.344;2023-07-24T07:55:18;18.30;99.90
9375;DHT22;4727;51.202;6.344;2023-07-24T07:57:44;18.20;99.90
9375;DHT22;4727;51.202;6.344;2023-07-24T08:00:10;18.10;99.90
9375;DHT22;4727;51.202;6.344;2023-07-24T08:02:36;18.30;99.90
9375;DHT22;4727;51.202;6.344;2023-07-24T08:05:06;18.40;99.90
9375;DHT22;4727;51.202;6.344;2023-07-24T08:07:32;18.30;99.90
9375;DHT22;4727;51.202;6.344;2023-07-24T08:09:58;18.20;99.90
9375;DHT22;4727;51.202;6.344;2023-07-24T08:12:23;18.20;99.90
9375;DHT22;4727;51.202;6.344;2023-07-24T08:14:49;18.20;99.90
9375;DHT22;4727;51.202;6.344;2023-07-24T08:17:14;18.50;99.90
9375;DHT22;4727;51.202;6.344;2023-07-24T08:19:40;18.10;99.90
9375;DHT22;4727;51.202;6.344;2023-07-24T08:22:05;18.00;99.90
9375;DHT22;4727;51.202;6.344;2023-07-24T08:24:37;18.00;99.90
9375;DHT22;4727;51.202;6.344;2023-07-24T08:27:02;17.90;99.90
9375;DHT22;4727;51.202;6.344;2023-07-24T08:29:28;17.90;99.90
9375;DHT22;4727;51.202;6.344;2023-07-24T08:31:54;17.80;99.90
9375;DHT22;4727;51.202;6.344;2023-07-24T08:34:20;17.90;99.90
9375;DHT22;4727;51.202;6.344;2023-07-24T08:36:45;18.00;99.90
9375;DHT22;4727;51.202;6.344;2023-07-24T08:39:11;17.90;99.90
9375;DHT22;4727;51.202;6.344;2023-07-24T08:41:37;17.90;99.90
9375;DHT22;4727;51.202;6.344;2023-07-24T08:44:05;18.10;99.90
9375;DHT22;4727;51.202;6.344;2023-07-24T08:46:35;18.20;99.90
9375;DHT22;4727;51.202;6.344;2023-07-24T08:49:01;18.20;99.90
9375;DHT22;4727;51.202;6.344;2023-07-24T08:51:28;18.20;99.90
9375;DHT22;4727;51.202;6.344;2023-07-24T08:53:56;18.20;99.90
9375;DHT22;4727;51.202;6.344;2023-07-24T08:56:22;18.20;99.90
9375;DHT22;4727;51.202;6.344;2023-07-24T08:58:47;18.30;99.90
9375;DHT22;4727;51.202;6.344;2023-07-24T09:01:13;18.30;99.90
9375;DHT22;4727;51.202;6.344;2023-07-24T09:03:39;18.50;99.90
9375;DHT22;4727;51.202;6.344;2023-07-24T09:06:05;18.70;99.90
9375;DHT22;4727;51.202;6.344;2023-07-24T09:08:37;18.70;99.90
9375;DHT22;4727;51.202;6.344;2023-07-24T09:11:05;18.80;99.90
9375;DHT22;4727;51.202;6.344;2023-07-24T09:13:31;18.80;99.90
9375;DHT22;4727;51.202;6.344;2023-07-24T09:15:57;18.90;99.90
9375;DHT22;4727;51.202;6.344;2023-07-24T09:18:25;18.90;99.90
9375;DHT22;4727;51.202;6.344;2023-07-24T09:20:50;19.00;99.90
9375;DHT22;4727;51.202;6.344;2023-07-24T09:23:26;18.90;99.90
9375;DHT22;4727;51.202;6.344;2023-07-24T09:25:52;19.10;99.90
9375;DHT22;4727;51.202;6.344;2023-07-24T09:28:17;19.20;99.90
9375;DHT22;4727;51.202;6.344;2023-07-24T09:30:54;19.20;99.90
9375;DHT22;4727;51.202;6.344;2023-07-24T09:33:20;19.20;99.90
9375;DHT22;4727;51.202;6.344;2023-07-24T09:35:57;19.30;99.90
9375;DHT22;4727;51.202;6.344;2023-07-24T09:38:23;19.30;99.90
9375;DHT22;4727;51.202;6.344;2023-07-24T09:40:49;19.50;99.90
9375;DHT22;4727;51.202;6.344;2023-07-24T09:43:23;19.40;99.90
9375;DHT22;4727;51.202;6.344;2023-07-24T09:45:50;19.40;99.90
9375;DHT22;4727;51.202;6.344;2023-07-24T09:48:17;19.30;99.90
9375;DHT22;4727;51.202;6.344;2023-07-24T09:50:45;19.30;99.90
9375;DHT22;4727;51.202;6.344;2023-07-24T09:53:22;19.30;99.90
9375;DHT22;4727;51.202;6.344;2023-07-24T09:55:56;19.30;99.90
9375;DHT22;4727;51.202;6.344;2023-07-24T09:58:23;19.30;99.90
9375;DHT22;4727;51.202;6.344;2023-07-24T10:00:50;19.20;99.90
9375;DHT22;4727;51.202;6.344;2023-07-24T10:03:16;19.20;99.90
9375;DHT22;4727;51.202;6.344;2023-07-24T10:05:44;19.40;99.90
9375;DHT22;4727;51.202;6.344;2023-07-24T10:08:11;19.20;99.90
9375;DHT22;4727;51.202;6.344;2023-07-24T10:10:38;19.20;99.90
9375;DHT22;4727;51.202;6.344;2023-07-24T10:13:04;19.20;99.90
9375;DHT22;4727;51.202;6.344;2023-07-24T10:15:31;19.20;99.90
9375;DHT22;4727;51.202;6.344;2023-07-24T10:18:07;19.20;99.90
9375;DHT22;4727;51.202;6.344;2023-07-24T10:20:34;19.30;99.90
9375;DHT22;4727;51.202;6.344;2023-07-24T10:23:04;19.40;99.90
9375;DHT22;4727;51.202;6.344;2023-07-24T10:25:31;19.50;99.90
9375;DHT22;4727;51.202;6.344;2023-07-24T10:28:05;19.50;99.90
9375;DHT22;4727;51.202;6.344;2023-07-24T10:30:34;19.40;99.90
9375;DHT22;4727;51.202;6.344;2023-07-24T10:33:12;19.30;99.90
9375;DHT22;4727;51.202;6.344;2023-07-24T10:35:54;19.30;99.90
9375;DHT22;4727;51.202;6.344;2023-07-24T10:38:20;19.20;99.90
9375;DHT22;4727;51.202;6.344;2023-07-24T10:41:02;19.10;99.90
9375;DHT22;4727;51.202;6.344;2023-07-24T10:43:29;19.20;99.90
9375;DHT22;4727;51.202;6.344;2023-07-24T10:45:54;19.20;99.90
9375;DHT22;4727;51.202;6.344;2023-07-24T10:48:25;19.20;99.90
9375;DHT22;4727;51.202;6.344;2023-07-24T10:50:51;19.10;99.90
9375;DHT22;4727;51.202;6.344;2023-07-24T10:53:19;18.90;99.90
9375;DHT22;4727;51.202;6.344;2023-07-24T10:55:47;19.00;99.90
9375;DHT22;4727;51.202;6.344;2023-07-24T10:58:13;18.80;99.90
9375;DHT22;4727;51.202;6.344;2023-07-24T11:00:40;18.70;99.90
9375;DHT22;4727;51.202;6.344;2023-07-24T11:03:09;18.60;99.90
9375;DHT22;4727;51.202;6.344;2023-07-24T11:05:42;18.50;99.90
9375;DHT22;4727;51.202;6.344;2023-07-24T11:08:12;18.40;99.90
9375;DHT22;4727;51.202;6.344;2023-07-24T11:10:56;18.20;99.90
9375;DHT22;4727;51.202;6.344;2023-07-24T11:13:25;18.20;99.90
9375;DHT22;4727;51.202;6.344;2023-07-24T11:15:52;18.20;99.90
9375;DHT22;4727;51.202;6.344;2023-07-24T11:18:19;18.10;99.90
9375;DHT22;4727;51.202;6.344;2023-07-24T11:20:51;17.90;99.90
9375;DHT22;4727;51.202;6.344;2023-07-24T11:23:18;17.90;99.90
9375;DHT22;4727;51.202;6.344;2023-07-24T11:25:44;17.90;99.90
9375;DHT22;4727;51.202;6.344;2023-07-24T11:28:11;18.10;99.90
9375;DHT22;4727;51.202;6.344;2023-07-24T11:30:37;17.90;99.90
9375;DHT22;4727;51.202;6.344;2023-07-24T11:33:05;18.20;99.90
9375;DHT22;4727;51.202;6.344;2023-07-24T11:35:31;18.20;99.90
9375;DHT22;4727;51.202;6.344;2023-07-24T11:37:57;18.20;99.90
9375;DHT22;4727;51.202;6.344;2023-07-24T11:40:39;18.40;99.90
9375;DHT22;4727;51.202;6.344;2023-07-24T11:43:05;18.50;99.90
9375;DHT22;4727;51.202;6.344;2023-07-24T11:45:41;18.40;99.90
9375;DHT22;4727;51.202;6.344;2023-07-24T11:48:12;18.80;99.90
9375;DHT22;4727;51.202;6.344;2023-07-24T11:50:52;18.70;99.90
9375;DHT22;4727;51.202;6.344;2023-07-24T11:53:29;18.80;99.90
9375;DHT22;4727;51.202;6.344;2023-07-24T11:55:57;18.80;99.90
9375;DHT22;4727;51.202;6.344;2023-07-24T11:58:26;18.80;99.90
9375;DHT22;4727;51.202;6.344;2023-07-24T12:00:52;18.70;99.90
9375;DHT22;4727;51.202;6.344;2023-07-24T12:03:21;18.60;99.90
9375;DHT22;4727;51.202;6.344;2023-07-24T12:05:47;18.60;99.90
9375;DHT22;4727;51.202;6.344;2023-07-24T12:08:13;18.60;99.90
9375;DHT22;4727;51.202;6.344;2023-07-24T12:10:43;18.80;99.90
9375;DHT22;4727;51.202;6.344;2023-07-24T12:13:09;18.70;99.90
9375;DHT22;4727;51.202;6.344;2023-07-24T12:15:34;19.00;99.90
9375;DHT22;4727;51.202;6.344;2023-07-24T12:18:01;19.20;99.90
9375;DHT22;4727;51.202;6.344;2023-07-24T12:20:27;19.30;99.90
9375;DHT22;4727;51.202;6.344;2023-07-24T12:22:53;19.50;99.90
9375;DHT22;4727;51.202;6.344;2023-07-24T12:25:19;19.50;99.90
9375;DHT22;4727;51.202;6.344;2023-07-24T12:27:45;19.50;99.90
9375;DHT22;4727;51.202;6.344;2023-07-24T12:30:11;19.50;99.90
9375;DHT22;4727;51.202;6.344;2023-07-24T12:32:37;19.40;99.90
9375;DHT22;4727;51.202;6.344;2023-07-24T12:35:02;19.30;99.90
9375;DHT22;4727;51.202;6.344;2023-07-24T12:37:28;19.40;99.90
9375;DHT22;4727;51.202;6.344;2023-07-24T12:39:54;19.40;99.90
9375;DHT22;4727;51.202;6.344;2023-07-24T12:42:20;19.40;99.90
9375;DHT22;4727;51.202;6.344;2023-07-24T12:44:45;19.30;99.90
9375;DHT22;4727;51.202;6.344;2023-07-24T12:47:11;19.40;99.90
9375;DHT22;4727;51.202;6.344;2023-07-24T12:49:37;19.70;99.90
9375;DHT22;4727;51.202;6.344;2023-07-24T12:52:04;19.80;99.90
9375;DHT22;4727;51.202;6.344;2023-07-24T12:54:31;20.00;99.90
9375;DHT22;4727;51.202;6.344;2023-07-24T12:56:56;20.00;99.90
9375;DHT22;4727;51.202;6.344;2023-07-24T12:59:22;19.60;99.90
9375;DHT22;4727;51.202;6.344;2023-07-24T13:01:48;20.00;99.90
9375;DHT22;4727;51.202;6.344;2023-07-24T13:04:13;20.30;99.90
9375;DHT22;4727;51.202;6.344;2023-07-24T13:06:39;20.60;99.90
9375;DHT22;4727;51.202;6.344;2023-07-24T13:09:05;20.80;99.90
9375;DHT22;4727;51.202;6.344;2023-07-24T13:11:31;21.10;99.90
9375;DHT22;4727;51.202;6.344;2023-07-24T13:13:57;21.20;99.90
9375;DHT22;4727;51.202;6.344;2023-07-24T13:16:23;21.30;99.90
9375;DHT22;4727;51.202;6.344;2023-07-24T13:18:49;21.30;99.90
9375;DHT22;4727;51.202;6.344;2023-07-24T13:21:14;21.30;99.90
9375;DHT22;4727;51.202;6.344;2023-07-24T13:23:40;21.10;99.90
9375;DHT22;4727;51.202;6.344;2023-07-24T13:26:06;21.10;99.90
9375;DHT22;4727;51.202;6.344;2023-07-24T13:28:34;21.20;99.90
9375;DHT22;4727;51.202;6.344;2023-07-24T13:30:59;21.30;99.90
9375;DHT22;4727;51.202;6.344;2023-07-24T13:33:25;21.30;99.90
9375;DHT22;4727;51.202;6.344;2023-07-24T13:35:50;21.10;99.90
9375;DHT22;4727;51.202;6.344;2023-07-24T13:38:16;21.20;99.90
9375;DHT22;4727;51.202;6.344;2023-07-24T13:40:42;21.00;99.90
9375;DHT22;4727;51.202;6.344;2023-07-24T13:43:08;20.90;99.90
9375;DHT22;4727;51.202;6.344;2023-07-24T13:45:33;20.80;99.90
9375;DHT22;4727;51.202;6.344;2023-07-24T13:47:59;20.70;99.90
9375;DHT22;4727;51.202;6.344;2023-07-24T13:50:24;20.50;99.90
9375;DHT22;4727;51.202;6.344;2023-07-24T13:52:50;20.40;99.90
9375;DHT22;4727;51.202;6.344;2023-07-24T13:55:16;20.20;99.90
9375;DHT22;4727;51.202;6.344;2023-07-24T13:57:41;19.90;99.90
9375;DHT22;4727;51.202;6.344;2023-07-24T14:00:07;19.80;99.90
9375;DHT22;4727;51.202;6.344;2023-07-24T14:02:33;19.80;99.90
9375;DHT22;4727;51.202;6.344;2023-07-24T14:04:58;19.90;99.90
9375;DHT22;4727;51.202;6.344;2023-07-24T14:07:24;19.70;99.90
9375;DHT22;4727;51.202;6.344;2023-07-24T14:09:50;19.70;99.90
9375;DHT22;4727;51.202;6.344;2023-07-24T14:12:15;19.70;99.90
9375;DHT22;4727;51.202;6.344;2023-07-24T14:14:41;19.70;99.90
9375;DHT22;4727;51.202;6.344;2023-07-24T14:17:07;19.70;99.90
9375;DHT22;4727;51.202;6.344;2023-07-24T14:19:32;19.80;99.90
9375;DHT22;4727;51.202;6.344;2023-07-24T14:21:58;19.90;99.90
9375;DHT22;4727;51.202;6.344;2023-07-24T14:24:23;20.00;99.90
9375;DHT22;4727;51.202;6.344;2023-07-24T14:26:49;20.10;99.90
9375;DHT22;4727;51.202;6.344;2023-07-24T14:29:14;20.20;99.90
9375;DHT22;4727;51.202;6.344;2023-07-24T14:31:43;20.30;99.90
9375;DHT22;4727;51.202;6.344;2023-07-24T14:34:08;20.50;99.90
9375;DHT22;4727;51.202;6.344;2023-07-24T14:36:36;20.50;99.90
9375;DHT22;4727;51.202;6.344;2023-07-24T14:39:05;21.00;99.90
9375;DHT22;4727;51.202;6.344;2023-07-24T14:41:31;21.10;99.90
9375;DHT22;4727;51.202;6.344;2023-07-24T14:43:57;21.00;99.90
9375;DHT22;4727;51.202;6.344;2023-07-24T14:46:23;21.20;99.90
9375;DHT22;4727;51.202;6.344;2023-07-24T14:48:49;21.40;99.90
9375;DHT22;4727;51.202;6.344;2023-07-24T14:51:14;21.40;99.90
9375;DHT22;4727;51.202;6.344;2023-07-24T14:53:40;21.60;99.90
9375;DHT22;4727;51.202;6.344;2023-07-24T14:56:06;21.70;99.90
9375;DHT22;4727;51.202;6.344;2023-07-24T14:58:31;21.70;99.90
9375;DHT22;4727;51.202;6.344;2023-07-24T15:00:57;21.80;99.90
9375;DHT22;4727;51.202;6.344;2023-07-24T15:03:23;22.20;99.90
9375;DHT22;4727;51.202;6.344;2023-07-24T15:05:49;22.40;99.90
9375;DHT22;4727;51.202;6.344;2023-07-24T15:08:14;22.20;99.90
9375;DHT22;4727;51.202;6.344;2023-07-24T15:10:40;21.50;99.90
9375;DHT22;4727;51.202;6.344;2023-07-24T15:13:06;21.20;99.90
9375;DHT22;4727;51.202;6.344;2023-07-24T15:15:32;21.20;99.90
9375;DHT22;4727;51.202;6.344;2023-07-24T15:17:58;21.40;99.90
9375;DHT22;4727;51.202;6.344;2023-07-24T15:20:24;21.40;99.90
9375;DHT22;4727;51.202;6.344;2023-07-24T15:22:50;21.40;99.90
9375;DHT22;4727;51.202;6.344;2023-07-24T15:25:20;21.50;99.90
9375;DHT22;4727;51.202;6.344;2023-07-24T15:27:45;21.40;99.90
9375;DHT22;4727;51.202;6.344;2023-07-24T15:30:11;21.20;99.90
9375;DHT22;4727;51.202;6.344;2023-07-24T15:32:37;20.90;99.90
9375;DHT22;4727;51.202;6.344;2023-07-24T15:35:03;20.70;99.90
9375;DHT22;4727;51.202;6.344;2023-07-24T15:37:29;20.40;99.90
9375;DHT22;4727;51.202;6.344;2023-07-24T15:39:55;20.40;99.90
9375;DHT22;4727;51.202;6.344;2023-07-24T15:42:21;20.40;99.90
9375;DHT22;4727;51.202;6.344;2023-07-24T15:44:48;20.40;99.90
9375;DHT22;4727;51.202;6.344;2023-07-24T15:47:13;20.40;99.90
9375;DHT22;4727;51.202;6.344;2023-07-24T15:49:39;20.40;99.90
9375;DHT22;4727;51.202;6.344;2023-07-24T15:52:06;20.40;99.90
9375;DHT22;4727;51.202;6.344;2023-07-24T15:54:32;20.40;99.90
9375;DHT22;4727;51.202;6.344;2023-07-24T15:56:57;20.40;99.90
9375;DHT22;4727;51.202;6.344;2023-07-24T15:59:23;20.10;99.90